sensor_id;sensor_type;location;lat;lon;timestamp;P1;durP1;ratioP1;P2;durP2;ratioP2
78589;SDS011;67888;50.228;7.828;2024-03-22T00:02:54;17.20;;;7.87;;
78589;SDS011;67888;50.228;7.828;2024-03-22T00:07:55;17.25;;;7.68;;
78589;SDS011;67888;50.228;7.828;2024-03-22T00:12:55;16.77;;;8.10;;
78589;SDS011;67888;50.228;7.828;2024-03-22T00:17:56;16.40;;;7.03;;
78589;SDS011;67888;50.228;7.828;2024-03-22T00:22:56;17.70;;;8.60;;
78589;SDS011;67888;50.228;7.828;2024-03-22T00:27:57;15.90;;;7.43;;
78589;SDS011;67888;50.228;7.828;2024-03-22T00:32:57;17.80;;;8.17;;
78589;SDS011;67888;50.228;7.828;2024-03-22T00:37:57;16.83;;;7.23;;
78589;SDS011;67888;50.228;7.828;2024-03-22T00:42:58;17.97;;;7.83;;
78589;SDS011;67888;50.228;7.828;2024-03-22T00:47:58;16.33;;;7.57;;
78589;SDS011;67888;50.228;7.828;2024-03-22T00:52:59;16.50;;;7.60;;
78589;SDS011;67888;50.228;7.828;2024-03-22T00:57:59;17.90;;;7.80;;
78589;SDS011;67888;50.228;7.828;2024-03-22T01:03:00;19.17;;;7.90;;
78589;SDS011;67888;50.228;7.828;2024-03-22T01:08:00;16.77;;;8.27;;
78589;SDS011;67888;50.228;7.828;2024-03-22T01:13:01;17.03;;;8.07;;
78589;SDS011;67888;50.228;7.828;2024-03-22T01:18:02;17.35;;;7.55;;
78589;SDS011;67888;50.228;7.828;2024-03-22T01:23:02;14.83;;;7.47;;
78589;SDS011;67888;50.228;7.828;2024-03-22T01:28:04;17.55;;;7.90;;
78589;SDS011;67888;50.228;7.828;2024-03-22T01:33:05;18.97;;;8.43;;
78589;SDS011;67888;50.228;7.828;2024-03-22T01:38:05;16.58;;;7.57;;
78589;SDS011;67888;50.228;7.828;2024-03-22T01:43:06;19.93;;;8.27;;
78589;SDS011;67888;50.228;7.828;2024-03-22T01:48:07;16.20;;;7.33;;
78589;SDS011;67888;50.228;7.828;2024-03-22T01:53:08;15.63;;;6.97;;
78589;SDS011;67888;50.228;7.828;2024-03-22T01:58:09;16.40;;;7.55;;
78589;SDS011;67888;50.228;7.828;2024-03-22T02:03:12;18.70;;;8.02;;
78589;SDS011;67888;50.228;7.828;2024-03-22T02:08:12;16.57;;;7.20;;
78589;SDS011;67888;50.228;7.828;2024-03-22T02:13:13;16.27;;;6.77;;
78589;SDS011;67888;50.228;7.828;2024-03-22T02:18:13;18.40;;;7.77;;
78589;SDS011;67888;50.228;7.828;2024-03-22T02:23:14;15.47;;;6.97;;
78589;SDS011;67888;50.228;7.828;2024-03-22T02:28:14;17.97;;;7.63;;
78589;SDS011;67888;50.228;7.828;2024-03-22T02:33:15;17.60;;;7.50;;
78589;SDS011;67888;50.228;7.828;2024-03-22T02:38:16;15.50;;;7.53;;
78589;SDS011;67888;50.228;7.828;2024-03-22T02:43:17;18.80;;;7.97;;
78589;SDS011;67888;50.228;7.828;2024-03-22T02:48:19;18.90;;;7.70;;
78589;SDS011;67888;50.228;7.828;2024-03-22T02:53:19;18.80;;;7.73;;
78589;SDS011;67888;50.228;7.828;2024-03-22T02:58:20;18.30;;;7.40;;
78589;SDS011;67888;50.228;7.828;2024-03-22T03:03:21;14.70;;;7.15;;
78589;SDS011;67888;50.228;7.828;2024-03-22T03:08:22;16.30;;;8.00;;
78589;SDS011;67888;50.228;7.828;2024-03-22T03:13:22;21.10;;;8.00;;
78589;SDS011;67888;50.228;7.828;2024-03-22T03:18:23;14.73;;;6.03;;
78589;SDS011;67888;50.228;7.828;2024-03-22T03:23:23;18.57;;;7.57;;
78589;SDS011;67888;50.228;7.828;2024-03-22T03:28:24;17.67;;;7.73;;
78589;SDS011;67888;50.228;7.828;2024-03-22T03:33:26;16.35;;;7.65;;
78589;SDS011;67888;50.228;7.828;2024-03-22T03:38:26;14.47;;;7.53;;
78589;SDS011;67888;50.228;7.828;2024-03-22T03:43:27;16.90;;;7.20;;
78589;SDS011;67888;50.228;7.828;2024-03-22T03:48:27;16.30;;;7.27;;
78589;SDS011;67888;50.228;7.828;2024-03-22T03:53:28;16.50;;;7.57;;
78589;SDS011;67888;50.228;7.828;2024-03-22T03:58:30;16.37;;;7.27;;
78589;SDS011;67888;50.228;7.828;2024-03-22T04:03:30;18.87;;;6.73;;
78589;SDS011;67888;50.228;7.828;2024-03-22T04:08:31;15.70;;;7.20;;
78589;SDS011;67888;50.228;7.828;2024-03-22T04:13:32;17.90;;;6.93;;
78589;SDS011;67888;50.228;7.828;2024-03-22T04:18:33;16.92;;;7.47;;
78589;SDS011;67888;50.228;7.828;2024-03-22T04:23:33;15.67;;;7.17;;
78589;SDS011;67888;50.228;7.828;2024-03-22T04:28:34;18.13;;;7.90;;
78589;SDS011;67888;50.228;7.828;2024-03-22T04:33:35;14.73;;;7.33;;
78589;SDS011;67888;50.228;7.828;2024-03-22T04:38:36;15.45;;;7.22;;
78589;SDS011;67888;50.228;7.828;2024-03-22T04:43:37;15.00;;;7.07;;
78589;SDS011;67888;50.228;7.828;2024-03-22T04:48:37;14.33;;;6.67;;
78589;SDS011;67888;50.228;7.828;2024-03-22T04:53:38;14.43;;;6.70;;
78589;SDS011;67888;50.228;7.828;2024-03-22T04:58:40;15.80;;;7.03;;
78589;SDS011;67888;50.228;7.828;2024-03-22T05:03:40;13.45;;;6.78;;
78589;SDS011;67888;50.228;7.828;2024-03-22T05:08:41;15.73;;;7.37;;
78589;SDS011;67888;50.228;7.828;2024-03-22T05:13:42;12.93;;;7.03;;
78589;SDS011;67888;50.228;7.828;2024-03-22T05:18:42;14.73;;;7.00;;
78589;SDS011;67888;50.228;7.828;2024-03-22T05:23:43;14.83;;;7.80;;
78589;SDS011;67888;50.228;7.828;2024-03-22T05:28:44;16.43;;;7.33;;
78589;SDS011;67888;50.228;7.828;2024-03-22T05:33:44;18.45;;;7.90;;
78589;SDS011;67888;50.228;7.828;2024-03-22T05:38:45;17.27;;;8.10;;
78589;SDS011;67888;50.228;7.828;2024-03-22T05:43:45;22.73;;;9.27;;
78589;SDS011;67888;50.228;7.828;2024-03-22T05:48:46;22.87;;;10.07;;
78589;SDS011;67888;50.228;7.828;2024-03-22T05:53:48;16.77;;;8.13;;
78589;SDS011;67888;50.228;7.828;2024-03-22T05:58:49;21.60;;;10.93;;
78589;SDS011;67888;50.228;7.828;2024-03-22T06:03:49;21.20;;;11.03;;
78589;SDS011;67888;50.228;7.828;2024-03-22T06:08:50;20.60;;;10.27;;
78589;SDS011;67888;50.228;7.828;2024-03-22T06:13:52;21.88;;;11.07;;
78589;SDS011;67888;50.228;7.828;2024-03-22T06:18:53;21.33;;;9.70;;
78589;SDS011;67888;50.228;7.828;2024-03-22T06:23:53;16.13;;;7.50;;
78589;SDS011;67888;50.228;7.828;2024-03-22T06:28:54;15.30;;;7.00;;
78589;SDS011;67888;50.228;7.828;2024-03-22T06:33:54;18.93;;;9.67;;
78589;SDS011;67888;50.228;7.828;2024-03-22T06:38:56;20.63;;;9.60;;
78589;SDS011;67888;50.228;7.828;2024-03-22T06:43:57;19.10;;;9.50;;
78589;SDS011;67888;50.228;7.828;2024-03-22T06:48:57;17.27;;;8.95;;
78589;SDS011;67888;50.228;7.828;2024-03-22T06:53:59;17.20;;;8.47;;
78589;SDS011;67888;50.228;7.828;2024-03-22T06:58:59;15.00;;;7.53;;
78589;SDS011;67888;50.228;7.828;2024-03-22T07:04:00;14.57;;;6.50;;
78589;SDS011;67888;50.228;7.828;2024-03-22T07:09:01;12.90;;;5.27;;
78589;SDS011;67888;50.228;7.828;2024-03-22T07:14:01;12.13;;;4.97;;
78589;SDS011;67888;50.228;7.828;2024-03-22T07:19:02;11.20;;;4.25;;
78589;SDS011;67888;50.228;7.828;2024-03-22T07:24:03;9.63;;;4.35;;
78589;SDS011;67888;50.228;7.828;2024-03-22T07:29:04;11.40;;;5.10;;
78589;SDS011;67888;50.228;7.828;2024-03-22T07:34:05;10.40;;;4.47;;
78589;SDS011;67888;50.228;7.828;2024-03-22T07:39:06;12.03;;;4.53;;
78589;SDS011;67888;50.228;7.828;2024-03-22T07:44:07;11.00;;;4.90;;
78589;SDS011;67888;50.228;7.828;2024-03-22T07:49:08;9.30;;;4.17;;
78589;SDS011;67888;50.228;7.828;2024-03-22T07:54:08;9.30;;;4.03;;
78589;SDS011;67888;50.228;7.828;2024-03-22T07:59:09;9.70;;;4.15;;
78589;SDS011;67888;50.228;7.828;2024-03-22T08:04:09;11.03;;;4.20;;
78589;SDS011;67888;50.228;7.828;2024-03-22T08:09:10;8.57;;;3.60;;
78589;SDS011;67888;50.228;7.828;2024-03-22T08:14:10;9.10;;;3.83;;
78589;SDS011;67888;50.228;7.828;2024-03-22T08:19:11;9.23;;;4.10;;
78589;SDS011;67888;50.228;7.828;2024-03-22T08:24:11;8.17;;;3.80;;
78589;SDS011;67888;50.228;7.828;2024-03-22T08:29:13;8.88;;;3.58;;
78589;SDS011;67888;50.228;7.828;2024-03-22T08:34:14;9.33;;;3.80;;
78589;SDS011;67888;50.228;7.828;2024-03-22T08:39:15;7.75;;;3.53;;
78589;SDS011;67888;50.228;7.828;2024-03-22T08:44:16;9.00;;;3.77;;
78589;SDS011;67888;50.228;7.828;2024-03-22T08:49:17;7.90;;;3.78;;
78589;SDS011;67888;50.228;7.828;2024-03-22T08:54:19;10.87;;;4.13;;
78589;SDS011;67888;50.228;7.828;2024-03-22T08:59:20;9.48;;;4.22;;
78589;SDS011;67888;50.228;7.828;2024-03-22T09:04:20;8.80;;;3.67;;
78589;SDS011;67888;50.228;7.828;2024-03-22T09:09:21;8.87;;;4.23;;
78589;SDS011;67888;50.228;7.828;2024-03-22T09:14:21;10.00;;;4.13;;
78589;SDS011;67888;50.228;7.828;2024-03-22T09:19:22;10.65;;;4.28;;
78589;SDS011;67888;50.228;7.828;2024-03-22T09:24:22;13.47;;;5.83;;
78589;SDS011;67888;50.228;7.828;2024-03-22T09:29:23;11.37;;;5.90;;
78589;SDS011;67888;50.228;7.828;2024-03-22T09:34:24;11.55;;;6.18;;
78589;SDS011;67888;50.228;7.828;2024-03-22T09:39:25;13.20;;;6.87;;
78589;SDS011;67888;50.228;7.828;2024-03-22T09:44:27;14.80;;;7.20;;
78589;SDS011;67888;50.228;7.828;2024-03-22T09:49:29;12.67;;;7.43;;
78589;SDS011;67888;50.228;7.828;2024-03-22T09:54:30;15.90;;;9.00;;
78589;SDS011;67888;50.228;7.828;2024-03-22T09:59:31;15.63;;;8.68;;
78589;SDS011;67888;50.228;7.828;2024-03-22T10:04:32;17.27;;;8.87;;
78589;SDS011;67888;50.228;7.828;2024-03-22T10:09:34;17.33;;;9.88;;
78589;SDS011;67888;50.228;7.828;2024-03-22T10:14:35;16.33;;;9.30;;
78589;SDS011;67888;50.228;7.828;2024-03-22T10:19:37;18.02;;;10.35;;
78589;SDS011;67888;50.228;7.828;2024-03-22T10:24:37;15.40;;;8.70;;
78589;SDS011;67888;50.228;7.828;2024-03-22T10:29:38;17.20;;;9.27;;
78589;SDS011;67888;50.228;7.828;2024-03-22T10:34:38;18.42;;;10.07;;
78589;SDS011;67888;50.228;7.828;2024-03-22T10:39:42;16.77;;;8.90;;
78589;SDS011;67888;50.228;7.828;2024-03-22T10:44:43;17.17;;;9.60;;
78589;SDS011;67888;50.228;7.828;2024-03-22T10:49:44;16.35;;;9.48;;
78589;SDS011;67888;50.228;7.828;2024-03-22T10:54:48;15.50;;;9.70;;
78589;SDS011;67888;50.228;7.828;2024-03-22T10:59:49;17.17;;;10.30;;
78589;SDS011;67888;50.228;7.828;2024-03-22T11:04:56;17.70;;;9.47;;
78589;SDS011;67888;50.228;7.828;2024-03-22T11:10:00;17.03;;;9.57;;
78589;SDS011;67888;50.228;7.828;2024-03-22T11:15:09;18.58;;;9.93;;
78589;SDS011;67888;50.228;7.828;2024-03-22T11:20:10;16.40;;;10.00;;
78589;SDS011;67888;50.228;7.828;2024-03-22T11:25:12;18.73;;;9.50;;
78589;SDS011;67888;50.228;7.828;2024-03-22T11:30:13;15.02;;;8.35;;
78589;SDS011;67888;50.228;7.828;2024-03-22T11:35:14;15.33;;;8.03;;
78589;SDS011;67888;50.228;7.828;2024-03-22T11:40:15;13.93;;;8.67;;
78589;SDS011;67888;50.228;7.828;2024-03-22T11:45:16;15.40;;;8.43;;
78589;SDS011;67888;50.228;7.828;2024-03-22T11:50:19;16.23;;;8.52;;
78589;SDS011;67888;50.228;7.828;2024-03-22T11:55:19;14.85;;;7.95;;
78589;SDS011;67888;50.228;7.828;2024-03-22T12:00:20;14.53;;;8.20;;
78589;SDS011;67888;50.228;7.828;2024-03-22T12:05:22;15.50;;;8.67;;
78589;SDS011;67888;50.228;7.828;2024-03-22T12:10:23;16.88;;;8.52;;
78589;SDS011;67888;50.228;7.828;2024-03-22T12:15:24;14.70;;;8.20;;
78589;SDS011;67888;50.228;7.828;2024-03-22T12:20:24;18.00;;;8.83;;
78589;SDS011;67888;50.228;7.828;2024-03-22T12:25:25;17.75;;;8.82;;
78589;SDS011;67888;50.228;7.828;2024-03-22T12:30:25;15.63;;;8.23;;
78589;SDS011;67888;50.228;7.828;2024-03-22T12:35:26;15.50;;;8.23;;
78589;SDS011;67888;50.228;7.828;2024-03-22T12:40:27;17.73;;;8.07;;
78589;SDS011;67888;50.228;7.828;2024-03-22T12:45:29;15.00;;;6.70;;
78589;SDS011;67888;50.228;7.828;2024-03-22T12:50:30;12.63;;;5.95;;
78589;SDS011;67888;50.228;7.828;2024-03-22T12:55:30;14.83;;;7.07;;
78589;SDS011;67888;50.228;7.828;2024-03-22T13:00:31;14.10;;;6.70;;
78589;SDS011;67888;50.228;7.828;2024-03-22T13:05:33;12.38;;;6.30;;
78589;SDS011;67888;50.228;7.828;2024-03-22T13:10:34;12.77;;;6.27;;
78589;SDS011;67888;50.228;7.828;2024-03-22T13:15:34;14.47;;;6.53;;
78589;SDS011;67888;50.228;7.828;2024-03-22T13:20:37;14.93;;;7.47;;
78589;SDS011;67888;50.228;7.828;2024-03-22T13:25:38;14.60;;;7.80;;
78589;SDS011;67888;50.228;7.828;2024-03-22T13:30:38;17.17;;;8.47;;
78589;SDS011;67888;50.228;7.828;2024-03-22T13:35:39;14.60;;;8.25;;
78589;SDS011;67888;50.228;7.828;2024-03-22T13:40:41;16.50;;;7.63;;
78589;SDS011;67888;50.228;7.828;2024-03-22T13:45:41;17.67;;;8.00;;
78589;SDS011;67888;50.228;7.828;2024-03-22T13:50:43;14.05;;;7.55;;
78589;SDS011;67888;50.228;7.828;2024-03-22T13:55:44;14.43;;;7.40;;
78589;SDS011;67888;50.228;7.828;2024-03-22T14:00:45;13.88;;;7.75;;
78589;SDS011;67888;50.228;7.828;2024-03-22T14:05:45;15.33;;;7.80;;
78589;SDS011;67888;50.228;7.828;2024-03-22T14:10:46;17.10;;;8.13;;
78589;SDS011;67888;50.228;7.828;2024-03-22T14:15:46;16.17;;;8.00;;
78589;SDS011;67888;50.228;7.828;2024-03-22T14:20:47;16.73;;;8.27;;
78589;SDS011;67888;50.228;7.828;2024-03-22T14:25:48;17.97;;;8.90;;
78589;SDS011;67888;50.228;7.828;2024-03-22T14:30:49;15.15;;;8.82;;
78589;SDS011;67888;50.228;7.828;2024-03-22T14:35:49;14.83;;;8.70;;
78589;SDS011;67888;50.228;7.828;2024-03-22T14:40:50;19.50;;;11.07;;
78589;SDS011;67888;50.228;7.828;2024-03-22T14:45:53;17.48;;;12.00;;
78589;SDS011;67888;50.228;7.828;2024-03-22T14:50:55;17.02;;;10.43;;
78589;SDS011;67888;50.228;7.828;2024-03-22T14:56:00;16.27;;;10.03;;
78589;SDS011;67888;50.228;7.828;2024-03-22T15:01:05;18.75;;;10.65;;
78589;SDS011;67888;50.228;7.828;2024-03-22T15:06:06;16.53;;;10.00;;
78589;SDS011;67888;50.228;7.828;2024-03-22T15:11:07;16.23;;;10.40;;
78589;SDS011;67888;50.228;7.828;2024-03-22T15:16:08;15.97;;;10.97;;
78589;SDS011;67888;50.228;7.828;2024-03-22T15:21:09;19.15;;;13.70;;
78589;SDS011;67888;50.228;7.828;2024-03-22T15:26:10;18.37;;;10.90;;
78589;SDS011;67888;50.228;7.828;2024-03-22T15:31:11;18.17;;;11.60;;
78589;SDS011;67888;50.228;7.828;2024-03-22T15:36:11;15.17;;;12.77;;
78589;SDS011;67888;50.228;7.828;2024-03-22T15:41:12;19.30;;;17.40;;
78589;SDS011;67888;50.228;7.828;2024-03-22T15:46:14;19.83;;;17.88;;
78589;SDS011;67888;50.228;7.828;2024-03-22T15:51:16;19.92;;;18.13;;
78589;SDS011;67888;50.228;7.828;2024-03-22T15:56:17;19.97;;;18.17;;
78589;SDS011;67888;50.228;7.828;2024-03-22T16:01:17;17.00;;;15.30;;
78589;SDS011;67888;50.228;7.828;2024-03-22T16:06:18;15.07;;;13.68;;
78589;SDS011;67888;50.228;7.828;2024-03-22T16:11:18;14.93;;;13.43;;
78589;SDS011;67888;50.228;7.828;2024-03-22T16:16:19;14.37;;;12.63;;
78589;SDS011;67888;50.228;7.828;2024-03-22T16:21:19;13.17;;;11.53;;
78589;SDS011;67888;50.228;7.828;2024-03-22T16:26:20;13.37;;;11.97;;
78589;SDS011;67888;50.228;7.828;2024-03-22T16:31:20;13.68;;;11.43;;
78589;SDS011;67888;50.228;7.828;2024-03-22T16:36:22;11.60;;;8.30;;
78589;SDS011;67888;50.228;7.828;2024-03-22T16:41:23;12.73;;;7.10;;
78589;SDS011;67888;50.228;7.828;2024-03-22T16:46:23;10.80;;;7.07;;
78589;SDS011;67888;50.228;7.828;2024-03-22T16:51:25;13.10;;;9.17;;
78589;SDS011;67888;50.228;7.828;2024-03-22T16:56:25;28.20;;;11.98;;
78589;SDS011;67888;50.228;7.828;2024-03-22T17:01:26;17.53;;;10.10;;
78589;SDS011;67888;50.228;7.828;2024-03-22T17:06:26;13.47;;;7.83;;
78589;SDS011;67888;50.228;7.828;2024-03-22T17:11:27;12.10;;;7.13;;
78589;SDS011;67888;50.228;7.828;2024-03-22T17:16:27;11.67;;;6.20;;
78589;SDS011;67888;50.228;7.828;2024-03-22T17:21:28;12.15;;;5.78;;
78589;SDS011;67888;50.228;7.828;2024-03-22T17:26:28;11.50;;;6.63;;
78589;SDS011;67888;50.228;7.828;2024-03-22T17:31:29;11.00;;;5.33;;
78589;SDS011;67888;50.228;7.828;2024-03-22T17:36:41;11.60;;;4.83;;
78589;SDS011;67888;50.228;7.828;2024-03-22T17:41:42;9.07;;;5.37;;
78589;SDS011;67888;50.228;7.828;2024-03-22T17:46:43;10.87;;;6.00;;
78589;SDS011;67888;50.228;7.828;2024-03-22T17:51:43;11.17;;;6.37;;
78589;SDS011;67888;50.228;7.828;2024-03-22T17:56:44;13.77;;;6.43;;
78589;SDS011;67888;50.228;7.828;2024-03-22T18:01:44;10.87;;;5.50;;
78589;SDS011;67888;50.228;7.828;2024-03-22T18:06:47;11.60;;;5.35;;
78589;SDS011;67888;50.228;7.828;2024-03-22T18:11:47;12.47;;;5.27;;
78589;SDS011;67888;50.228;7.828;2024-03-22T18:16:48;10.83;;;4.80;;
78589;SDS011;67888;50.228;7.828;2024-03-22T18:21:50;9.77;;;4.32;;
78589;SDS011;67888;50.228;7.828;2024-03-22T18:26:53;11.80;;;5.03;;
78589;SDS011;67888;50.228;7.828;2024-03-22T18:31:55;10.57;;;4.80;;
78589;SDS011;67888;50.228;7.828;2024-03-22T18:36:55;9.60;;;4.53;;
78589;SDS011;67888;50.228;7.828;2024-03-22T18:41:56;10.73;;;5.37;;
78589;SDS011;67888;50.228;7.828;2024-03-22T18:46:57;12.23;;;5.77;;
78589;SDS011;67888;50.228;7.828;2024-03-22T18:51:57;10.73;;;6.30;;
78589;SDS011;67888;50.228;7.828;2024-03-22T18:56:58;13.53;;;6.33;;
78589;SDS011;67888;50.228;7.828;2024-03-22T19:02:00;12.75;;;5.85;;
78589;SDS011;67888;50.228;7.828;2024-03-22T19:07:01;11.63;;;5.20;;
78589;SDS011;67888;50.228;7.828;2024-03-22T19:12:02;17.42;;;9.10;;
78589;SDS011;67888;50.228;7.828;2024-03-22T19:17:05;22.15;;;12.18;;
78589;SDS011;67888;50.228;7.828;2024-03-22T19:22:08;10.57;;;5.60;;
78589;SDS011;67888;50.228;7.828;2024-03-22T19:27:09;13.30;;;6.90;;
78589;SDS011;67888;50.228;7.828;2024-03-22T19:32:10;14.87;;;7.67;;
78589;SDS011;67888;50.228;7.828;2024-03-22T19:37:10;13.20;;;7.30;;
78589;SDS011;67888;50.228;7.828;2024-03-22T19:42:11;16.02;;;7.47;;
78589;SDS011;67888;50.228;7.828;2024-03-22T19:47:11;16.57;;;8.63;;
78589;SDS011;67888;50.228;7.828;2024-03-22T19:52:12;22.27;;;6.53;;
78589;SDS011;67888;50.228;7.828;2024-03-22T19:57:13;11.95;;;6.45;;
78589;SDS011;67888;50.228;7.828;2024-03-22T20:02:14;13.83;;;6.43;;
78589;SDS011;67888;50.228;7.828;2024-03-22T20:07:15;14.32;;;6.30;;
78589;SDS011;67888;50.228;7.828;2024-03-22T20:12:15;14.03;;;6.67;;
78589;SDS011;67888;50.228;7.828;2024-03-22T20:17:16;12.87;;;6.60;;
78589;SDS011;67888;50.228;7.828;2024-03-22T20:22:16;13.23;;;6.60;;
78589;SDS011;67888;50.228;7.828;2024-03-22T20:27:17;12.17;;;6.53;;
78589;SDS011;67888;50.228;7.828;2024-03-22T20:32:17;12.93;;;7.90;;
78589;SDS011;67888;50.228;7.828;2024-03-22T20:37:18;13.87;;;6.30;;
